Bowling Green, Illinois
Current Conditions -  °F | °C
As of 6:15 PM on Saturday 25 Oct 2014 (Local Time) from K1H2 Reporting Station
Clear Clear  
Wind Chill: 20°   Ceiling: Unl
Heat Index: 20°   Visibility: 10mi
Dew Point:   Wind: 3mph
Humidity: 47%   Direction: 250°WSW
Pressure: 29.99"   Gusts: NA
Location:  39.2184°N, 88.9038°W
Report Text: K1H2 252315Z AUTO 25003KT 10SM CLR 20/09 A2999 RMK AO2 T02010085
Loading
Personal Weather Stations






























Interactive Weather Map
Tropical Storm Tracking
New forecast layout! Learn more

10-Day Weather Forecast

Advertisements
Track Severe Weather on mobile